Airfield :
LOGIN :

Register | Disclaimer

   EN    FR    IT 

 










Legend :    VFR   Marginal VFR   IFR   Intensive IFR   Very Intensive IFR
Visi :
Ceiling :
>= 8 km
>= 3000ft
5 to 8 km
1000 to 3000 ft
1500m to 5 km
500 to 1000 ft
800 to 1500m
200 to 500 ft
< 800m
< 200 ft
Symbols :   Thunderstorms  Fog  Heavy snow  Heavy precipitations  Wind > 20 kt
SIGMETs :     Misc.  Thunderstorms  Icing  Turbulence  Mountain Waves  Volcanic Ashes







- Airport Elevation : 65 ft
- IATA code : PIK
- Download approach charts


EGPK - Glasgow Prestwick

CURRENT METAR :
  • 230450Z 24011KT 9999 -SHRA SCT014 BKN032 05/02 Q0980

EXPIRED METARs :
  • 230350Z 28011KT 9999 -SHRA SCT014 BKN032 05/02 Q0980
  • 230250Z 28010KT 9999 -SHRA SCT014 BKN032 05/03 Q0979

TAF TAF EGPK
Valid from the 23 at 00:00 until the 24 at 00:00 UTC


222300Z 2300/2324 VRB03KT 9999 BKN020
PROB40
TEMPO 2300/2305 4000 -RA SHRA BKN008
BECMG 2304/2307 26012KT
PROB30
TEMPO 2310/2324 6000 SHRA BKN009
No reported NOTAMs for that airfield.
1 SIGMET reported for the Scottish FIR (EGPX) :
 
Severe turbulence
EGPX SIGMET 01 VALID 230200/230600 EGRR
EGPX SCOTTISH FIR SEV TURB FCST SE OF LINE N5500 E00126 - N5756 E00327 SFC/FL060 MOV E 15KT NC=



MET'MAP, your aeronautical weather chart ! - Copyright ORBIFLY December 2007 - Disclaimer

ORBIFLY MET'MAP TEAM :

Programming & Development : Alexandra Zaïnal
Concept & Development : Baudouin d'Aumeries
Co-Development & Prog : Marc-Olivier Méhu
Technical & hardware support : Manuel Goepfert

Contact : metmap@orbifly.com




SOURCES & CREDITS :

   NOAA